createdAt,value
2018-05-11T08:35:16.422Z,17.76
2018-05-11T08:35:57.137Z,17.71
2018-05-11T08:36:37.558Z,17.71
2018-05-11T08:37:18.137Z,17.7
2018-05-11T08:37:58.795Z,17.78
2018-05-11T08:38:39.347Z,17.87
2018-05-11T08:39:19.902Z,17.82
2018-05-11T08:40:00.450Z,17.92
2018-05-11T08:40:41.053Z,17.97
2018-05-11T08:41:21.609Z,17.94
2018-05-11T08:42:02.157Z,17.95
2018-05-11T08:42:42.731Z,17.98
2018-05-11T08:43:23.290Z,18.05
2018-05-11T08:44:03.855Z,18.05
2018-05-11T08:44:44.417Z,18.1
2018-05-11T08:45:24.969Z,18.05
2018-05-11T08:46:05.534Z,18.13
2018-05-11T08:46:46.116Z,18.2
2018-05-11T08:47:26.717Z,18.19
2018-05-11T08:48:07.281Z,18.11
2018-05-11T08:48:47.863Z,18.15
2018-05-11T08:49:28.421Z,17.97
2018-05-11T08:50:08.992Z,18.13
2018-05-11T08:50:49.575Z,18.07
2018-05-11T08:51:30.157Z,17.98
2018-05-11T08:52:10.842Z,17.92
2018-05-11T08:52:51.417Z,17.97
2018-05-11T08:53:32.027Z,17.95
2018-05-11T08:54:12.913Z,17.94
2018-05-11T08:54:53.467Z,17.94
2018-05-11T08:55:34.024Z,17.97
2018-05-11T08:56:14.698Z,17.97
2018-05-11T08:56:55.320Z,17.97
2018-05-11T08:57:35.865Z,17.98
2018-05-11T08:58:16.440Z,18.01
2018-05-11T08:58:56.988Z,18
2018-05-11T08:59:37.549Z,17.97
2018-05-11T09:00:18.105Z,18.01
2018-05-11T09:00:58.652Z,18.05
2018-05-11T09:01:39.237Z,18.04
2018-05-11T09:02:19.828Z,18.04
2018-05-11T09:03:00.410Z,18.15
2018-05-11T09:03:41.075Z,18.16
2018-05-11T09:04:21.628Z,18.1
2018-05-11T09:05:02.178Z,18.08
2018-05-11T09:05:42.733Z,18.13
2018-05-11T09:06:23.293Z,18.1
2018-05-11T09:07:03.872Z,18.1
2018-05-11T09:07:44.432Z,18.05
2018-05-11T09:08:25.018Z,18.11
2018-05-11T09:09:05.635Z,18.2
2018-05-11T09:09:46.171Z,18.16
2018-05-11T09:10:26.760Z,18.25
2018-05-11T09:11:07.317Z,18.22
2018-05-11T09:11:47.919Z,18.28
2018-05-11T09:12:28.492Z,18.23
2018-05-11T09:13:09.044Z,18.33
2018-05-11T09:13:49.613Z,18.31
2018-05-11T09:14:30.178Z,18.31
2018-05-11T09:15:10.786Z,18.33
2018-05-11T09:15:51.412Z,18.41
2018-05-11T09:16:31.941Z,18.23
2018-05-11T09:17:12.488Z,18.23
2018-05-11T09:17:53.106Z,18.16
2018-05-11T09:18:33.699Z,18.1
2018-05-11T09:19:14.251Z,18.13
2018-05-11T09:19:54.859Z,18.01
2018-05-11T09:20:35.421Z,18.01
2018-05-11T09:21:16.023Z,17.98
2018-05-11T09:21:56.581Z,18.05
2018-05-11T09:22:37.161Z,18.04
2018-05-11T09:23:17.804Z,18.11
2018-05-11T09:23:58.370Z,18.23
2018-05-11T09:24:38.970Z,18.15
2018-05-11T09:25:19.544Z,18.29
2018-05-11T09:26:00.110Z,18.28
2018-05-11T09:26:40.672Z,18.26
2018-05-11T09:27:21.213Z,18.16
2018-05-11T09:28:01.778Z,18.15
2018-05-11T09:28:42.327Z,18.03
2018-05-11T09:29:22.891Z,18.01
2018-05-11T09:30:03.453Z,17.97
2018-05-11T09:30:44.016Z,17.92
2018-05-11T09:31:24.575Z,17.92
2018-05-11T09:32:05.153Z,17.98
2018-05-11T09:32:45.725Z,18.01
2018-05-11T09:33:26.288Z,18.1
2018-05-11T09:34:06.884Z,18.11
2018-05-11T09:34:47.465Z,18.2
2018-05-11T09:35:28.038Z,18.26
2018-05-11T09:36:08.607Z,18.33
2018-05-11T09:36:49.159Z,18.22
2018-05-11T09:37:29.753Z,18.28
2018-05-11T09:38:10.449Z,18.28
2018-05-11T09:38:51.006Z,18.37
2018-05-11T09:39:31.669Z,18.4
2018-05-11T09:40:12.119Z,18.43
2018-05-11T09:40:53.175Z,18.44
2018-05-11T09:41:33.508Z,18.47
2018-05-11T09:42:14.051Z,18.49
2018-05-11T09:42:54.607Z,18.43
2018-05-11T09:43:35.219Z,18.55
2018-05-11T09:44:15.805Z,18.44
2018-05-11T09:44:56.359Z,18.59
2018-05-11T09:45:36.913Z,18.44
2018-05-11T09:46:17.490Z,18.44
2018-05-11T09:46:58.201Z,18.49
2018-05-11T09:47:38.781Z,18.41
2018-05-11T09:48:19.367Z,18.4
2018-05-11T09:48:59.953Z,18.43
2018-05-11T09:49:40.532Z,18.45
2018-05-11T09:50:21.099Z,18.45
2018-05-11T09:51:01.678Z,18.59
2018-05-11T09:51:42.273Z,18.55
2018-05-11T09:52:22.825Z,18.58
2018-05-11T09:53:03.353Z,18.63
2018-05-11T09:53:43.919Z,18.58
2018-05-11T09:54:24.519Z,18.56
2018-05-11T09:55:05.179Z,18.66
2018-05-11T09:55:45.647Z,18.65
2018-05-11T09:56:26.213Z,18.63
2018-05-11T09:57:06.802Z,18.71
2018-05-11T09:57:47.359Z,18.71
2018-05-11T09:58:27.913Z,18.74
2018-05-11T09:59:08.491Z,18.73
2018-05-11T09:59:49.075Z,18.74
2018-05-11T10:00:29.657Z,18.7
2018-05-11T10:01:10.241Z,18.73
2018-05-11T10:01:50.986Z,18.75
2018-05-11T10:02:31.528Z,18.78
2018-05-11T10:03:12.066Z,18.8
2018-05-11T10:03:52.629Z,18.8
2018-05-11T10:04:33.202Z,18.8
2018-05-11T10:05:13.756Z,18.81
2018-05-11T10:05:54.300Z,18.78
2018-05-11T10:06:34.841Z,18.73
2018-05-11T10:07:15.383Z,18.74
2018-05-11T10:07:56.024Z,18.78
2018-05-11T10:08:36.506Z,18.89
2018-05-11T10:09:17.062Z,18.86
2018-05-11T10:09:57.628Z,18.86
2018-05-11T10:10:38.186Z,18.89
2018-05-11T10:11:18.755Z,18.92
2018-05-11T10:11:59.307Z,18.93
2018-05-11T10:12:39.966Z,19.07
2018-05-11T10:13:20.546Z,18.96
2018-05-11T10:14:01.124Z,19.04
2018-05-11T10:14:41.699Z,18.93
2018-05-11T10:15:22.247Z,18.95
2018-05-11T10:16:02.880Z,18.9
2018-05-11T10:16:43.436Z,18.77
2018-05-11T10:17:24.006Z,18.83
2018-05-11T10:18:04.571Z,18.73
2018-05-11T10:18:45.163Z,18.73
2018-05-11T10:19:25.730Z,18.68
2018-05-11T10:20:06.257Z,18.73
2018-05-11T10:20:46.904Z,18.7
2018-05-11T10:21:27.372Z,18.68
2018-05-11T10:22:07.933Z,18.52
2018-05-11T10:22:48.516Z,18.52
2018-05-11T10:23:29.072Z,18.44
2018-05-11T10:24:09.644Z,18.58
2018-05-11T10:24:50.241Z,18.43
2018-05-11T10:25:30.804Z,18.5
2018-05-11T10:26:11.356Z,18.5
2018-05-11T10:26:51.912Z,18.45
2018-05-11T10:27:32.470Z,18.47
2018-05-11T10:28:13.035Z,18.49
2018-05-11T10:28:53.623Z,18.62
2018-05-11T10:29:34.114Z,18.58
2018-05-11T10:30:14.658Z,18.56
2018-05-11T10:30:55.205Z,18.53
2018-05-11T10:31:35.827Z,18.5
2018-05-11T10:32:16.386Z,18.52
2018-05-11T10:32:56.946Z,18.38
2018-05-11T10:33:37.515Z,18.47
2018-05-11T10:34:18.123Z,18.45
2018-05-11T10:34:58.712Z,18.44
2018-05-11T10:35:39.298Z,18.47
2018-05-11T10:36:19.876Z,18.53
2018-05-11T10:37:00.492Z,18.53
2018-05-11T10:37:41.061Z,18.68
2018-05-11T10:38:21.623Z,18.56
2018-05-11T10:39:02.175Z,18.66
2018-05-11T10:39:42.728Z,18.7
2018-05-11T10:40:23.287Z,18.77
2018-05-11T10:41:03.869Z,18.75
2018-05-11T10:41:44.840Z,18.84
2018-05-11T10:42:25.373Z,18.83
2018-05-11T10:43:05.956Z,18.83
2018-05-11T10:43:46.543Z,18.84
2018-05-11T10:44:27.119Z,18.83
2018-05-11T10:45:07.707Z,18.88
2018-05-11T10:45:48.257Z,18.83
2018-05-11T10:46:28.837Z,19.02
2018-05-11T10:47:09.397Z,19.02
2018-05-11T10:47:49.965Z,18.89
2018-05-11T10:48:30.645Z,18.89
2018-05-11T10:49:11.091Z,18.92
2018-05-11T10:49:51.645Z,18.93
2018-05-11T10:50:32.196Z,18.96
2018-05-11T10:51:12.755Z,18.9
2018-05-11T10:51:53.426Z,18.93
2018-05-11T10:52:34.028Z,18.98
2018-05-11T10:53:14.563Z,18.96
2018-05-11T10:53:55.165Z,18.98
2018-05-11T10:54:35.785Z,19.04
2018-05-11T10:55:16.340Z,18.98
2018-05-11T10:55:56.932Z,18.93
2018-05-11T10:56:37.535Z,18.92
2018-05-11T10:57:18.104Z,18.89
2018-05-11T10:57:58.689Z,18.89
2018-05-11T10:58:39.243Z,18.92
2018-05-11T10:59:19.802Z,18.89
2018-05-11T11:00:00.379Z,18.92
2018-05-11T11:00:40.969Z,18.86
2018-05-11T11:01:21.550Z,18.84
2018-05-11T11:02:02.109Z,18.89
2018-05-11T11:02:42.729Z,18.88
2018-05-11T11:03:23.242Z,18.92
2018-05-11T11:04:03.827Z,18.98
2018-05-11T11:04:44.363Z,19.04
2018-05-11T11:05:24.916Z,18.89
2018-05-11T11:06:05.508Z,18.99
2018-05-11T11:06:46.073Z,18.95
2018-05-11T11:07:26.648Z,18.93
2018-05-11T11:08:07.237Z,18.93
2018-05-11T11:08:47.766Z,18.98
2018-05-11T11:09:28.388Z,18.93
2018-05-11T11:10:08.944Z,18.93
2018-05-11T11:10:49.500Z,18.88
2018-05-11T11:11:30.067Z,18.92
2018-05-11T11:12:10.642Z,18.88
2018-05-11T11:12:51.200Z,18.9
2018-05-11T11:13:31.762Z,18.92
2018-05-11T11:14:12.337Z,18.95
2018-05-11T11:14:52.891Z,18.96
2018-05-11T11:15:33.450Z,18.92
2018-05-11T11:16:14.000Z,19
2018-05-11T11:16:54.557Z,18.95
2018-05-11T11:17:35.111Z,18.93
2018-05-11T11:18:15.683Z,19.02
2018-05-11T11:18:56.231Z,18.93
2018-05-11T11:19:36.783Z,18.96
2018-05-11T11:20:17.330Z,19.07
2018-05-11T11:20:57.874Z,18.92
2018-05-11T11:21:38.439Z,19.07
2018-05-11T11:22:18.989Z,19.07
2018-05-11T11:22:59.544Z,18.99
2018-05-11T11:23:40.116Z,19.11
2018-05-11T11:24:20.736Z,19.08
2018-05-11T11:25:01.312Z,19
2018-05-11T11:25:41.873Z,19.09
2018-05-11T11:26:22.437Z,19.07
2018-05-11T11:27:03.011Z,19.15
2018-05-11T11:27:43.570Z,19.08
2018-05-11T11:28:24.137Z,19.12
2018-05-11T11:29:04.694Z,19.16
2018-05-11T11:29:45.272Z,19.15
2018-05-11T11:30:25.842Z,19.07
2018-05-11T11:31:06.427Z,19.07
2018-05-11T11:31:46.997Z,19.16
2018-05-11T11:32:27.564Z,19.12
2018-05-11T11:33:08.116Z,19.04
2018-05-11T11:33:48.677Z,19.14
2018-05-11T11:34:29.345Z,19.11
2018-05-11T11:35:09.855Z,19.14
2018-05-11T11:35:50.422Z,19.04
2018-05-11T11:36:30.988Z,19.16
2018-05-11T11:37:11.544Z,19.16
2018-05-11T11:37:52.106Z,19.15
2018-05-11T11:38:32.677Z,19.15
2018-05-11T11:39:13.251Z,19.14
2018-05-11T11:39:53.814Z,19.18
2018-05-11T11:40:34.379Z,19.19
2018-05-11T11:41:14.941Z,19.18
2018-05-11T11:41:55.595Z,19.15
2018-05-11T11:42:36.075Z,19.04
2018-05-11T11:43:16.657Z,19.18
2018-05-11T11:43:57.219Z,19.08
2018-05-11T11:44:37.853Z,19.02
2018-05-11T11:45:18.437Z,19.02
2018-05-11T11:45:58.981Z,18.99
2018-05-11T11:46:39.541Z,18.98
2018-05-11T11:47:20.099Z,19.08
2018-05-11T11:48:00.685Z,19.04
2018-05-11T11:48:41.196Z,19.08
2018-05-11T11:49:21.769Z,19.04
2018-05-11T11:50:02.357Z,19
2018-05-11T11:50:42.969Z,19.04
2018-05-11T11:51:23.531Z,19.07
2018-05-11T11:52:04.083Z,19
2018-05-11T11:52:44.657Z,18.99
2018-05-11T11:53:25.219Z,18.95
2018-05-11T11:54:05.812Z,18.92
2018-05-11T11:54:46.351Z,18.92
2018-05-11T11:55:26.929Z,18.83
2018-05-11T11:56:07.516Z,18.83
2018-05-11T11:56:48.082Z,18.81
2018-05-11T11:57:28.663Z,18.77
2018-05-11T11:58:09.217Z,18.8
2018-05-11T11:58:49.807Z,18.75
2018-05-11T11:59:30.350Z,18.77
2018-05-11T12:00:10.947Z,18.73
2018-05-11T12:00:51.526Z,18.66
2018-05-11T12:01:32.187Z,18.66
2018-05-11T12:02:12.657Z,18.66
2018-05-11T12:02:53.210Z,18.65
2018-05-11T12:03:33.766Z,18.66
2018-05-11T12:04:14.320Z,18.66
2018-05-11T12:04:55.165Z,18.66
2018-05-11T12:05:35.951Z,18.65
2018-05-11T12:06:16.526Z,18.63
2018-05-11T12:06:57.126Z,18.68
2018-05-11T12:07:37.887Z,18.68
2018-05-11T12:08:18.448Z,18.75
2018-05-11T12:08:59.156Z,18.78
2018-05-11T12:09:39.653Z,18.74
2018-05-11T12:10:20.241Z,18.73
2018-05-11T12:11:00.934Z,18.68
2018-05-11T12:11:41.489Z,18.65
2018-05-11T12:12:22.133Z,18.65
2018-05-11T12:13:02.699Z,18.62
2018-05-11T12:13:43.367Z,18.55
2018-05-11T12:14:23.908Z,18.62
2018-05-11T12:15:04.528Z,18.6
2018-05-11T12:15:45.187Z,18.47
2018-05-11T12:16:25.730Z,18.5
2018-05-11T12:17:06.333Z,18.43
2018-05-11T12:17:46.940Z,18.41
2018-05-11T12:18:27.549Z,18.45
2018-05-11T12:19:08.127Z,18.34
2018-05-11T12:19:48.695Z,18.38
2018-05-11T12:20:29.246Z,18.43
2018-05-11T12:21:09.861Z,18.43
2018-05-11T12:21:50.425Z,18.44
2018-05-11T12:22:31.002Z,18.43
2018-05-11T12:23:11.613Z,18.43
2018-05-11T12:23:52.208Z,18.44
2018-05-11T12:24:32.769Z,18.44
2018-05-11T12:25:13.339Z,18.41
2018-05-11T12:25:53.895Z,18.5
2018-05-11T12:26:34.474Z,18.52
2018-05-11T12:27:15.051Z,18.53
2018-05-11T12:27:55.611Z,18.58
2018-05-11T12:28:36.181Z,18.66
2018-05-11T12:29:16.744Z,18.7
2018-05-11T12:29:57.325Z,18.66
2018-05-11T12:30:37.901Z,18.66
2018-05-11T12:31:18.511Z,18.75
2018-05-11T12:31:59.056Z,18.81
2018-05-11T12:32:39.626Z,18.83
2018-05-11T12:33:20.177Z,18.84
2018-05-11T12:34:00.747Z,18.9
2018-05-11T12:34:41.832Z,18.88
2018-05-11T12:35:22.751Z,18.9
2018-05-11T12:36:03.699Z,19.04
2018-05-11T12:36:44.582Z,19.02
2018-05-11T12:37:25.143Z,18.93
2018-05-11T12:38:05.896Z,19.02
2018-05-11T12:38:46.530Z,18.95
2018-05-11T12:39:27.109Z,18.96
2018-05-11T12:40:08.030Z,18.89
2018-05-11T12:40:48.652Z,18.92
2018-05-11T12:41:29.339Z,18.9
2018-05-11T12:42:10.093Z,18.9
2018-05-11T12:42:50.859Z,18.89
2018-05-11T12:43:31.731Z,18.92
2018-05-11T12:44:12.314Z,18.88
2018-05-11T12:44:52.867Z,18.84
2018-05-11T12:45:33.438Z,18.89
2018-05-11T12:46:14.094Z,18.93
2018-05-11T12:46:54.619Z,18.83
2018-05-11T12:47:35.200Z,18.92
2018-05-11T12:48:15.855Z,18.86
2018-05-11T12:48:56.417Z,19.07
2018-05-11T12:49:37.073Z,18.86
2018-05-11T12:50:17.795Z,18.9
2018-05-11T12:50:58.331Z,18.9
2018-05-11T12:51:38.888Z,18.98
2018-05-11T12:52:19.777Z,18.9
2018-05-11T12:53:00.682Z,18.93
2018-05-11T12:53:41.529Z,18.95
2018-05-11T12:54:22.603Z,18.92
2018-05-11T12:55:03.257Z,19.04
2018-05-11T12:55:43.816Z,18.98
2018-05-11T12:56:24.442Z,19.09
2018-05-11T12:57:05.148Z,18.99
2018-05-11T12:57:45.880Z,19.08
2018-05-11T12:58:26.450Z,19.08
2018-05-11T12:59:06.990Z,19
2018-05-11T12:59:47.525Z,19.04
2018-05-11T13:00:28.109Z,19.12
2018-05-11T13:01:08.652Z,19.15
2018-05-11T13:01:49.234Z,19.18
2018-05-11T13:02:29.801Z,19.16
2018-05-11T13:03:10.430Z,19.16
2018-05-11T13:03:50.970Z,19.16
2018-05-11T13:04:31.589Z,19.18
2018-05-11T13:05:12.188Z,19.15
2018-05-11T13:05:52.748Z,19.24
2018-05-11T13:06:33.307Z,19.18
2018-05-11T13:07:13.890Z,19.22
2018-05-11T13:07:54.413Z,19.16
2018-05-11T13:08:34.970Z,19.22
2018-05-11T13:09:15.529Z,19.21
2018-05-11T13:09:56.087Z,19.27
2018-05-11T13:10:36.689Z,19.15
2018-05-11T13:11:17.252Z,19.21
2018-05-11T13:11:57.803Z,19.27
2018-05-11T13:12:38.360Z,19.16
2018-05-11T13:13:18.948Z,19.27
2018-05-11T13:13:59.482Z,19.15
2018-05-11T13:14:40.050Z,19.18
2018-05-11T13:15:20.607Z,19.19
2018-05-11T13:16:01.160Z,19.21
2018-05-11T13:16:41.796Z,19.27
2018-05-11T13:17:22.364Z,19.12
2018-05-11T13:18:02.929Z,19.22
2018-05-11T13:18:43.767Z,19.16
2018-05-11T13:19:24.393Z,19.14
2018-05-11T13:20:04.964Z,19.02
2018-05-11T13:20:45.632Z,18.95
2018-05-11T13:21:26.106Z,18.96
2018-05-11T13:22:06.681Z,18.96
2018-05-11T13:22:47.237Z,18.9
2018-05-11T13:23:27.803Z,18.8
2018-05-11T13:24:08.364Z,18.8
2018-05-11T13:24:49.192Z,18.73
2018-05-11T13:25:30.877Z,18.65
2018-05-11T13:26:11.442Z,18.65
2018-05-11T13:26:51.993Z,18.62
2018-05-11T13:27:32.573Z,18.63
2018-05-11T13:28:13.252Z,18.58
2018-05-11T13:28:53.844Z,18.53
2018-05-11T13:29:34.445Z,18.43
2018-05-11T13:30:15.065Z,18.5
2018-05-11T13:30:55.582Z,18.5
2018-05-11T13:31:36.158Z,18.55
2018-05-11T13:32:16.718Z,18.4
2018-05-11T13:32:57.307Z,18.43
2018-05-11T13:33:37.865Z,18.37
2018-05-11T13:34:18.422Z,18.45
2018-05-11T13:34:58.983Z,18.44
2018-05-11T13:35:39.609Z,18.41
2018-05-11T13:36:20.242Z,18.44
2018-05-11T13:37:01.021Z,18.35
2018-05-11T13:37:41.588Z,18.29
2018-05-11T13:38:22.137Z,18.34
2018-05-11T13:39:02.713Z,18.28
2018-05-11T13:39:43.292Z,18.35
2018-05-11T13:40:23.871Z,18.25
2018-05-11T13:41:04.412Z,18.25
2018-05-11T13:41:44.992Z,18.2
2018-05-11T13:42:25.557Z,18.18
2018-05-11T13:43:06.133Z,18.15
2018-05-11T13:43:46.703Z,18.18
2018-05-11T13:44:27.252Z,18.22
2018-05-11T13:45:07.813Z,18.19
2018-05-11T13:45:48.394Z,18.13
2018-05-11T13:46:28.959Z,18.15
2018-05-11T13:47:09.547Z,18.15
2018-05-11T13:47:50.137Z,18.18
2018-05-11T13:48:30.807Z,18.18
2018-05-11T13:49:11.288Z,18.1
2018-05-11T13:49:51.851Z,18.13
2018-05-11T13:50:32.414Z,18.08
2018-05-11T13:51:12.972Z,18.05
2018-05-11T13:51:53.556Z,18.08
2018-05-11T13:52:34.113Z,18.04
2018-05-11T13:53:14.692Z,18.08
2018-05-11T13:53:55.267Z,18.01
2018-05-11T13:54:35.834Z,18.08
2018-05-11T13:55:16.379Z,18.07
2018-05-11T13:55:56.946Z,18.05
2018-05-11T13:56:37.499Z,18.07
2018-05-11T13:57:18.057Z,18.04
2018-05-11T13:57:58.614Z,18.07
2018-05-11T13:58:39.169Z,18.1
2018-05-11T13:59:19.737Z,18.08
2018-05-11T14:00:00.326Z,18.01
2018-05-11T14:00:40.892Z,18.08
2018-05-11T14:01:21.457Z,18.03
2018-05-11T14:02:02.009Z,18.05
2018-05-11T14:02:42.563Z,18.08
2018-05-11T14:03:23.173Z,18.04
2018-05-11T14:04:03.705Z,18.01
2018-05-11T14:04:44.291Z,18.11
2018-05-11T14:05:24.857Z,18.03
2018-05-11T14:06:05.412Z,18.01
2018-05-11T14:06:46.012Z,18.01
2018-05-11T14:07:26.576Z,18.13
2018-05-11T14:08:07.162Z,18.03
2018-05-11T14:08:47.725Z,18.07
2018-05-11T14:09:28.287Z,18.13
2018-05-11T14:10:08.955Z,18.15
2018-05-11T14:10:49.461Z,18.1
2018-05-11T14:11:30.026Z,18.07
2018-05-11T14:12:10.778Z,18.11
2018-05-11T14:12:51.339Z,18.1
2018-05-11T14:13:31.892Z,18.07
2018-05-11T14:14:12.439Z,18.08
2018-05-11T14:14:52.995Z,18.08
2018-05-11T14:15:33.546Z,18.05
2018-05-11T14:16:14.112Z,18.18
2018-05-11T14:16:54.693Z,18.13
2018-05-11T14:17:35.266Z,18.15
2018-05-11T14:18:15.833Z,18.1
2018-05-11T14:18:56.382Z,18.1
2018-05-11T14:19:36.961Z,18.08
2018-05-11T14:20:17.500Z,18.07
2018-05-11T14:20:58.053Z,18.13
2018-05-11T14:21:38.603Z,18.13
2018-05-11T14:22:19.168Z,18.15
2018-05-11T14:22:59.731Z,18.13
2018-05-11T14:23:40.288Z,18.11
2018-05-11T14:24:20.870Z,18.1
2018-05-11T14:25:01.447Z,18.16
2018-05-11T14:25:42.006Z,18.16
2018-05-11T14:26:22.562Z,18.1
2018-05-11T14:27:03.198Z,18.11
2018-05-11T14:27:43.788Z,18.1
2018-05-11T14:28:24.337Z,18.13
2018-05-11T14:29:04.934Z,18.15
2018-05-11T14:29:45.512Z,18.15
2018-05-11T14:30:26.068Z,18.11
2018-05-11T14:31:06.633Z,18.16
2018-05-11T14:31:47.194Z,18.16
2018-05-11T14:32:27.759Z,18.19
2018-05-11T14:33:08.314Z,18.16
2018-05-11T14:33:48.868Z,18.18
2018-05-11T14:34:29.432Z,18.13
2018-05-11T14:35:09.995Z,18.08
2018-05-11T14:35:50.556Z,18.16
2018-05-11T14:36:31.158Z,18.1
2018-05-11T14:37:11.715Z,18.15
2018-05-11T14:37:52.278Z,18.13
2018-05-11T14:38:32.849Z,18.1
2018-05-11T14:39:13.488Z,18.13
2018-05-11T14:39:53.976Z,18.05
2018-05-11T14:40:34.531Z,18.04
2018-05-11T14:41:15.082Z,18.04
2018-05-11T14:41:55.636Z,18.08
2018-05-11T14:42:36.211Z,18.1
2018-05-11T14:43:16.779Z,18.05
2018-05-11T14:43:57.315Z,17.98
2018-05-11T14:44:37.880Z,18.05
2018-05-11T14:45:18.445Z,18.04
2018-05-11T14:45:59.008Z,18.04
2018-05-11T14:46:39.576Z,18.03
2018-05-11T14:47:20.144Z,18.03
2018-05-11T14:48:00.709Z,18
2018-05-11T14:48:41.283Z,18.01
2018-05-11T14:49:21.835Z,17.97
2018-05-11T14:50:02.406Z,17.98
2018-05-11T14:50:42.977Z,17.98
2018-05-11T14:51:23.551Z,17.98
2018-05-11T14:52:04.102Z,17.98
2018-05-11T14:52:44.720Z,17.98
2018-05-11T14:53:25.304Z,17.97
2018-05-11T14:54:05.886Z,17.98
2018-05-11T14:54:46.460Z,18.03
2018-05-11T14:55:27.050Z,18
2018-05-11T14:56:07.598Z,18
2018-05-11T14:56:48.168Z,17.97
2018-05-11T14:57:28.697Z,17.92
2018-05-11T14:58:09.290Z,17.98
2018-05-11T14:58:49.921Z,17.98
2018-05-11T14:59:30.396Z,17.92
2018-05-11T15:00:10.982Z,18
2018-05-11T15:00:51.531Z,17.98
2018-05-11T15:01:32.096Z,17.92
2018-05-11T15:02:12.652Z,17.95
2018-05-11T15:02:53.207Z,17.92
2018-05-11T15:03:33.770Z,17.95
2018-05-11T15:04:14.340Z,18.01
2018-05-11T15:04:54.957Z,18
2018-05-11T15:05:35.512Z,17.95
2018-05-11T15:06:16.128Z,17.95
2018-05-11T15:06:56.693Z,18
2018-05-11T15:07:37.266Z,17.92
2018-05-11T15:08:17.836Z,17.9
2018-05-11T15:08:58.396Z,17.92
2018-05-11T15:09:38.943Z,17.92
2018-05-11T15:10:19.500Z,17.94
2018-05-11T15:11:00.037Z,17.94
2018-05-11T15:11:40.629Z,17.95
2018-05-11T15:12:21.189Z,17.98
2018-05-11T15:13:01.776Z,18.01
2018-05-11T15:13:42.356Z,17.97
2018-05-11T15:14:22.918Z,18.03
2018-05-11T15:15:03.475Z,18.03
2018-05-11T15:15:44.053Z,18.07
2018-05-11T15:16:24.635Z,18.01
2018-05-11T15:17:05.212Z,17.97
2018-05-11T15:17:45.786Z,18.04
2018-05-11T15:18:26.369Z,18.08
2018-05-11T15:19:06.936Z,18.01
2018-05-11T15:19:47.493Z,18
2018-05-11T15:20:28.060Z,18.05
2018-05-11T15:21:08.637Z,18.05
2018-05-11T15:21:49.222Z,18.05
2018-05-11T15:22:29.772Z,18.08
2018-05-11T15:23:10.343Z,18.04
2018-05-11T15:23:50.901Z,18.08
2018-05-11T15:24:31.478Z,18.08
2018-05-11T15:25:12.052Z,18.05
2018-05-11T15:25:52.600Z,18.04
2018-05-11T15:26:33.165Z,18.07
2018-05-11T15:27:13.726Z,18.05
2018-05-11T15:27:54.284Z,18.05
2018-05-11T15:28:34.841Z,18.07
2018-05-11T15:29:15.418Z,18.1
2018-05-11T15:29:56.032Z,18.03
2018-05-11T15:30:36.608Z,18
2018-05-11T15:31:17.217Z,18.04
2018-05-11T15:31:57.739Z,18.01
2018-05-11T15:32:38.277Z,18.03
2018-05-11T15:33:18.887Z,18.07
2018-05-11T15:33:59.447Z,18.04
2018-05-11T15:34:40.030Z,18.05
2018-05-11T15:35:20.560Z,18.04
2018-05-11T15:36:01.124Z,18.01
2018-05-11T15:36:41.682Z,18.04
2018-05-11T15:37:22.252Z,18.04
2018-05-11T15:38:02.817Z,18.01
2018-05-11T15:38:43.391Z,18.01
2018-05-11T15:39:23.970Z,18
2018-05-11T15:40:04.512Z,18
2018-05-11T15:40:45.115Z,18.01
2018-05-11T15:41:25.688Z,18
2018-05-11T15:42:06.273Z,18
2018-05-11T15:42:46.831Z,18.03
2018-05-11T15:43:27.374Z,17.98
2018-05-11T15:44:07.930Z,18.03
2018-05-11T15:44:48.504Z,18.01
2018-05-11T15:45:29.130Z,18.03
2018-05-11T15:46:09.687Z,18.05
2018-05-11T15:46:50.245Z,18.07
2018-05-11T15:47:30.823Z,18.03
2018-05-11T15:48:11.415Z,18.04
2018-05-11T15:48:51.972Z,18.05
2018-05-11T15:49:32.530Z,18.05
2018-05-11T15:50:13.094Z,18.01
2018-05-11T15:50:53.677Z,18.01
2018-05-11T15:51:34.236Z,18.08
2018-05-11T15:52:14.813Z,18.05
2018-05-11T15:52:55.387Z,18.04
2018-05-11T15:53:35.939Z,18.08
2018-05-11T15:54:16.534Z,18.04
2018-05-11T15:54:57.123Z,18.01
2018-05-11T15:55:37.694Z,18.05
2018-05-11T15:56:18.289Z,18.04
2018-05-11T15:56:58.848Z,18.03
2018-05-11T15:57:39.406Z,18.03
2018-05-11T15:58:19.996Z,18.07
2018-05-11T15:59:00.605Z,18.01
2018-05-11T15:59:41.150Z,18.03
2018-05-11T16:00:21.729Z,17.95
2018-05-11T16:01:02.283Z,18.01
2018-05-11T16:01:42.852Z,17.98
2018-05-11T16:02:23.406Z,18
2018-05-11T16:03:03.959Z,17.98
2018-05-11T16:03:44.532Z,17.98
2018-05-11T16:04:25.101Z,17.94
2018-05-11T16:05:05.689Z,18.01
2018-05-11T16:05:46.238Z,17.98
2018-05-11T16:06:26.822Z,18.03
2018-05-11T16:07:07.359Z,17.98
2018-05-11T16:07:47.923Z,17.98
2018-05-11T16:08:28.478Z,17.98
2018-05-11T16:09:09.076Z,17.95
2018-05-11T16:09:49.605Z,17.95
2018-05-11T16:10:30.200Z,17.94
2018-05-11T16:11:10.781Z,17.9
2018-05-11T16:11:51.369Z,17.94
2018-05-11T16:12:32.001Z,17.95
2018-05-11T16:13:12.520Z,18
2018-05-11T16:13:53.084Z,17.92
2018-05-11T16:14:33.664Z,17.94
2018-05-11T16:15:14.245Z,17.9
2018-05-11T16:15:54.809Z,17.92
2018-05-11T16:16:35.369Z,17.94
2018-05-11T16:17:15.952Z,17.97
2018-05-11T16:17:56.500Z,17.9
2018-05-11T16:18:37.085Z,17.92
2018-05-11T16:19:17.667Z,17.89
2018-05-11T16:19:58.216Z,18
2018-05-11T16:20:38.974Z,17.94
2018-05-11T16:21:19.364Z,18.01
2018-05-11T16:21:59.968Z,17.89
2018-05-11T16:22:40.541Z,17.94
2018-05-11T16:23:21.097Z,17.95
2018-05-11T16:24:01.692Z,17.92
2018-05-11T16:24:42.230Z,17.92
2018-05-11T16:25:22.812Z,17.86
2018-05-11T16:26:03.345Z,17.9
2018-05-11T16:26:43.939Z,17.9
2018-05-11T16:27:24.480Z,17.94
2018-05-11T16:28:05.050Z,17.83
2018-05-11T16:28:45.613Z,17.87
2018-05-11T16:29:26.185Z,17.92
2018-05-11T16:30:06.744Z,17.8
2018-05-11T16:30:47.303Z,17.86
2018-05-11T16:31:27.854Z,17.85
2018-05-11T16:32:08.422Z,17.89
2018-05-11T16:32:48.977Z,17.86
2018-05-11T16:33:29.543Z,17.86
2018-05-11T16:34:10.102Z,17.89
2018-05-11T16:34:50.671Z,17.87
2018-05-11T16:35:31.214Z,17.83
2018-05-11T16:36:11.838Z,17.85
2018-05-11T16:36:52.382Z,17.87
2018-05-11T16:37:32.921Z,17.92
2018-05-11T16:38:13.494Z,17.89
2018-05-11T16:38:54.058Z,17.8
2018-05-11T16:39:34.667Z,17.89
2018-05-11T16:40:15.175Z,17.85
2018-05-11T16:40:55.747Z,17.89
2018-05-11T16:41:36.344Z,17.85
2018-05-11T16:42:16.913Z,17.87
2018-05-11T16:42:57.435Z,17.76
2018-05-11T16:43:37.978Z,17.87
2018-05-11T16:44:18.546Z,17.82
2018-05-11T16:44:59.083Z,17.87
2018-05-11T16:45:39.647Z,17.8
2018-05-11T16:46:20.223Z,17.8
2018-05-11T16:47:00.799Z,17.89
2018-05-11T16:47:41.416Z,17.85
2018-05-11T16:48:21.977Z,17.89
2018-05-11T16:49:02.545Z,17.85
2018-05-11T16:49:43.160Z,17.83
2018-05-11T16:50:23.732Z,17.79
2018-05-11T16:51:04.322Z,17.83
2018-05-11T16:51:44.890Z,17.83
2018-05-11T16:52:25.461Z,17.76
2018-05-11T16:53:06.020Z,17.68
2018-05-11T16:53:46.582Z,17.76
2018-05-11T16:54:27.140Z,17.79
2018-05-11T16:55:07.716Z,17.8
2018-05-11T16:55:48.274Z,17.74
2018-05-11T16:56:28.850Z,17.71
2018-05-11T16:57:09.404Z,17.71
2018-05-11T16:57:49.956Z,17.72
2018-05-11T16:58:30.528Z,17.78
2018-05-11T16:59:11.065Z,17.8
2018-05-11T16:59:51.630Z,17.85
2018-05-11T17:00:32.213Z,17.72
2018-05-11T17:01:12.784Z,17.78
2018-05-11T17:01:53.353Z,17.76
2018-05-11T17:02:33.906Z,17.72
2018-05-11T17:03:14.469Z,17.8
2018-05-11T17:03:55.054Z,17.72
2018-05-11T17:04:35.637Z,17.78
2018-05-11T17:05:16.189Z,17.72
2018-05-11T17:05:56.733Z,17.72
2018-05-11T17:06:37.339Z,17.78
2018-05-11T17:07:17.942Z,17.76
2018-05-11T17:07:58.493Z,17.68
2018-05-11T17:08:39.057Z,17.76
2018-05-11T17:09:19.638Z,17.78
2018-05-11T17:10:00.217Z,17.78
2018-05-11T17:10:40.773Z,17.72
2018-05-11T17:11:21.303Z,17.74
2018-05-11T17:12:01.885Z,17.76
2018-05-11T17:12:42.453Z,17.67
2018-05-11T17:13:23.018Z,17.67
2018-05-11T17:14:03.579Z,17.76
2018-05-11T17:14:44.132Z,17.71
2018-05-11T17:15:24.718Z,17.74
2018-05-11T17:16:05.283Z,17.7
2018-05-11T17:16:45.880Z,17.7
2018-05-11T17:17:26.438Z,17.64
2018-05-11T17:18:06.988Z,17.56
2018-05-11T17:18:47.548Z,17.6
2018-05-11T17:19:28.137Z,17.6
2018-05-11T17:20:08.690Z,17.57
2018-05-11T17:20:49.245Z,17.63